createdAt,value
2022-08-10T00:03:07.670Z,42.21
2022-08-10T00:13:08.983Z,42.96
2022-08-10T00:23:11.383Z,44.00
2022-08-10T00:33:12.701Z,44.21
2022-08-10T00:43:14.064Z,44.44
2022-08-10T00:53:15.402Z,44.99
2022-08-10T01:03:16.715Z,45.38
2022-08-10T01:13:38.003Z,45.53
2022-08-10T01:23:39.355Z,45.93
2022-08-10T01:34:02.065Z,46.14
2022-08-10T01:44:03.667Z,47.34
2022-08-10T01:54:09.277Z,47.96
2022-08-10T02:04:13.533Z,50.33
2022-08-10T02:14:15.034Z,52.04
2022-08-10T02:24:16.367Z,53.00
2022-08-10T02:34:17.625Z,55.12
2022-08-10T02:45:21.245Z,55.15
2022-08-10T02:54:43.201Z,56.05
2022-08-10T03:04:55.442Z,56.18
2022-08-10T03:14:59.984Z,56.17
2022-08-10T03:25:01.319Z,56.12
2022-08-10T03:35:02.665Z,57.17
2022-08-10T03:45:04.427Z,60.06
2022-08-10T03:55:05.758Z,59.61
2022-08-10T04:05:07.082Z,59.83
2022-08-10T04:15:08.390Z,60.22
2022-08-10T04:25:09.737Z,59.68
2022-08-10T04:35:11.132Z,59.17
2022-08-10T04:45:12.454Z,58.86
2022-08-10T04:55:13.779Z,57.38
2022-08-10T05:05:15.116Z,57.87
2022-08-10T05:15:18.345Z,57.34
2022-08-10T05:25:19.850Z,57.94
2022-08-10T05:35:21.381Z,56.27
2022-08-10T05:45:22.808Z,54.55
2022-08-10T05:55:24.121Z,54.55
2022-08-10T06:05:25.472Z,53.33
2022-08-10T06:15:50.615Z,53.25
2022-08-10T06:26:11.977Z,52.64
2022-08-10T06:36:09.614Z,51.72
2022-08-10T06:46:11.055Z,51.69
2022-08-10T06:56:12.391Z,51.12
2022-08-10T07:06:13.820Z,49.12
2022-08-10T07:16:15.494Z,49.20
2022-08-10T07:26:16.796Z,46.83
2022-08-10T07:36:18.350Z,46.20
2022-08-10T07:46:19.622Z,45.76
2022-08-10T07:56:45.335Z,44.46
2022-08-10T08:06:42.362Z,42.52
2022-08-10T08:16:43.759Z,41.98
2022-08-10T08:26:46.143Z,39.07
2022-08-10T08:36:57.439Z,37.57
2022-08-10T08:47:00.904Z,35.95
2022-08-10T08:57:02.246Z,35.80
2022-08-10T09:07:07.292Z,34.96
2022-08-10T09:17:29.006Z,33.66
2022-08-10T09:27:30.349Z,32.15
2022-08-10T09:38:01.319Z,31.73
2022-08-10T09:48:02.298Z,31.13
2022-08-10T09:58:04.401Z,30.98
2022-08-10T10:08:05.732Z,29.47
2022-08-10T10:18:07.125Z,27.63
2022-08-10T10:28:08.457Z,26.42
2022-08-10T10:38:09.798Z,27.33
2022-08-10T10:48:11.116Z,27.05
2022-08-10T10:58:20.747Z,26.47
2022-08-10T11:08:29.577Z,26.03
2022-08-10T11:18:33.769Z,25.80
2022-08-10T11:28:36.849Z,25.55
2022-08-10T11:38:57.614Z,24.26
2022-08-10T11:49:03.845Z,24.96
2022-08-10T11:59:24.207Z,21.92
2022-08-10T12:10:09.247Z,22.77
2022-08-10T12:20:01.651Z,22.52
2022-08-10T12:30:04.757Z,22.73
2022-08-10T12:40:34.087Z,21.99
2022-08-10T12:50:33.445Z,23.53
2022-08-10T13:00:35.301Z,21.74
2022-08-10T13:10:36.539Z,21.01
2022-08-10T13:20:37.872Z,21.85
2022-08-10T13:30:39.213Z,20.88
2022-08-10T13:40:40.520Z,20.87
2022-08-10T13:50:41.960Z,21.73
2022-08-10T14:00:43.259Z,20.17
2022-08-10T14:11:08.807Z,21.02
2022-08-10T14:21:05.937Z,21.53
2022-08-10T14:31:07.985Z,20.61
2022-08-10T14:41:09.248Z,20.50
2022-08-10T14:51:10.643Z,19.83
2022-08-10T15:01:13.739Z,22.47
2022-08-10T15:12:12.328Z,21.14
2022-08-10T15:21:42.678Z,21.24
2022-08-10T15:32:03.654Z,21.48
2022-08-10T15:42:05.108Z,21.49
2022-08-10T15:52:06.481Z,21.10
2022-08-10T16:02:15.755Z,20.58
2022-08-10T16:12:18.331Z,22.03
2022-08-10T16:22:34.348Z,22.16
2022-08-10T16:32:38.653Z,22.18
2022-08-10T16:42:44.428Z,22.27
2022-08-10T16:52:46.373Z,21.29
2022-08-10T17:02:47.714Z,21.77
2022-08-10T17:12:49.070Z,21.50
2022-08-10T17:22:54.205Z,21.02
2022-08-10T17:32:56.089Z,21.54
2022-08-10T17:42:57.460Z,21.90
2022-08-10T17:52:58.743Z,21.84
2022-08-10T18:02:59.988Z,22.80
2022-08-10T18:13:01.406Z,23.30
2022-08-10T18:23:02.907Z,24.70
2022-08-10T18:33:04.176Z,25.84
2022-08-10T18:43:09.991Z,25.99
2022-08-10T18:53:26.887Z,27.00
2022-08-10T19:03:36.719Z,27.33
2022-08-10T19:13:38.025Z,27.79
2022-08-10T19:23:39.332Z,28.71
2022-08-10T19:33:42.663Z,29.74
2022-08-10T19:44:00.409Z,31.19
2022-08-10T19:54:03.570Z,31.85
2022-08-10T20:04:04.951Z,32.52
2022-08-10T20:14:09.383Z,32.88
2022-08-10T20:24:23.037Z,33.40
2022-08-10T20:34:24.347Z,34.98
2022-08-10T20:44:25.697Z,35.82
2022-08-10T20:54:27.064Z,35.76
2022-08-10T21:04:28.402Z,35.70
2022-08-10T21:14:29.744Z,37.56
2022-08-10T21:24:31.093Z,38.06
2022-08-10T21:34:34.304Z,38.25
2022-08-10T21:45:01.060Z,38.03
2022-08-10T21:55:24.305Z,38.51
2022-08-10T22:06:04.320Z,39.37
2022-08-10T22:16:24.595Z,39.70
2022-08-10T22:26:44.542Z,40.35
2022-08-10T22:37:20.932Z,40.84
2022-08-10T22:47:41.024Z,41.52
2022-08-10T22:58:00.949Z,41.54
2022-08-10T23:08:02.218Z,41.89
2022-08-10T23:18:22.296Z,41.88
2022-08-10T23:28:38.817Z,43.00
2022-08-10T23:38:46.169Z,43.42
2022-08-10T23:48:58.623Z,45.93
2022-08-10T23:58:59.954Z,46.53
